PTW weather

Heritage Field
Pottstown, Pennsylvania, United States

Public forecast

Using degrees Fahrenheit for public forecast. Weather courtesy of forecast.io.

Current aviation weather report (METAR) for Heritage Field

Retrieved 2019/12/08 19:54 UTC (49 minutes ago):

KPTW 081954Z AUTO VRB05KT 10SM CLR 04/M07 A3041 RMK AO2 SLP298 T00391067

Closest aviation forecast (TAF) to Heritage Field

Closest forecast is Reading Regional Carl A Spaatz Field, 20.5 nm (37.9 km) WNW. Retrieved 2019/12/08 18:42 UTC (2 hours ago):

TAF KRDG 081740Z 0818/0918 18007KT P6SM BKN250 FM090200 18003KT P6SM BKN130 FM090500 VRB02KT P6SM BKN050 FM090700 VRB02KT 6SM -RADZ BKN030 FM091200 VRB03KT 3SM RA OVC008 WS020/20035KT FM091700 16006KT 2SM RA OVC003 WS020/18040KT